ZSAM Airport Information

Runway Information
Runway 05 Length 11155 ft width 148 ft
Elevation 56 ft Threshold 490 ft Heading 53
Runway 23 Length 11155 ft Width 148 ft
Elevation 36 ft Threshold 660 ft Heading 233
Airport Frequencies
Type APP Name XIAMEN APP Frequency 121.35 MHZ
Type ATIS Name ATIS Frequency 126.25 MHZ
Type GND Name XIAMEN GND Frequency 121.7 MHZ
Type TWR Name XIAMEN TWR Frequency 118.25 MHZ
Airport Navaids
Type NDB Name Xinglin Frequency 296 KHZ
Type VOR-DME Name Xiamen Frequency 114500 KHZ
Airport Weather Information & NOTAM
ADDS - METARS form results

(2005 UTC 23 April 2019)
Data provider http://aviationweather.gov/metar/data/
 
Forecast for: ZSAM (XIAMEN , CN)
Text: TAF ZSAM 231509Z 2318/2418 18003G09MPS 5000 BR SCT030 TX33/2406Z TN22/2321Z
Forecast period: 1800 UTC 23 April 2019 to 1800 UTC 24 April 2019
Forecast type: FROM: standard forecast or significant change
Winds: from the S (180 degrees) at 7 MPH (6 knots; 3.1 m/s)
gusting to 20 MPH (17 knots; 8.7 m/s)
Visibility: 3 miles (5 km)
Ceiling: at least 12,000 feet AGL
Clouds: scattered clouds at 3000 feet AGL
Weather: BR  (mist)